sensor_id;sensor_type;location;lat;lon;timestamp;P1;durP1;ratioP1;P2;durP2;ratioP2
67185;SDS011;54116;53.518;49.398;2022-10-16T00:02:24;7.03;;;2.20;;
67185;SDS011;54116;53.518;49.398;2022-10-16T00:04:56;7.55;;;2.83;;
67185;SDS011;54116;53.518;49.398;2022-10-16T00:07:27;7.53;;;2.63;;
67185;SDS011;54116;53.518;49.398;2022-10-16T00:09:58;6.68;;;2.55;;
67185;SDS011;54116;53.518;49.398;2022-10-16T00:12:30;5.63;;;2.30;;
67185;SDS011;54116;53.518;49.398;2022-10-16T00:15:01;7.57;;;2.65;;
67185;SDS011;54116;53.518;49.398;2022-10-16T00:17:33;7.30;;;2.25;;
67185;SDS011;54116;53.518;49.398;2022-10-16T00:20:04;6.90;;;2.33;;
67185;SDS011;54116;53.518;49.398;2022-10-16T00:22:36;6.60;;;2.60;;
67185;SDS011;54116;53.518;49.398;2022-10-16T00:25:10;6.32;;;2.17;;
67185;SDS011;54116;53.518;49.398;2022-10-16T00:27:41;5.80;;;2.28;;
67185;SDS011;54116;53.518;49.398;2022-10-16T00:30:13;5.78;;;2.40;;
67185;SDS011;54116;53.518;49.398;2022-10-16T00:32:44;8.30;;;2.72;;
67185;SDS011;54116;53.518;49.398;2022-10-16T00:35:15;7.70;;;2.55;;
67185;SDS011;54116;53.518;49.398;2022-10-16T00:37:47;7.93;;;3.22;;
67185;SDS011;54116;53.518;49.398;2022-10-16T00:40:18;8.18;;;2.60;;
67185;SDS011;54116;53.518;49.398;2022-10-16T00:42:50;7.07;;;2.60;;
67185;SDS011;54116;53.518;49.398;2022-10-16T00:45:21;6.82;;;2.40;;
67185;SDS011;54116;53.518;49.398;2022-10-16T00:47:53;6.60;;;2.80;;
67185;SDS011;54116;53.518;49.398;2022-10-16T00:50:27;6.90;;;2.70;;
67185;SDS011;54116;53.518;49.398;2022-10-16T00:53:01;5.97;;;2.42;;
67185;SDS011;54116;53.518;49.398;2022-10-16T00:55:33;7.97;;;2.50;;
67185;SDS011;54116;53.518;49.398;2022-10-16T00:58:05;7.47;;;2.13;;
67185;SDS011;54116;53.518;49.398;2022-10-16T01:00:40;5.97;;;2.83;;
67185;SDS011;54116;53.518;49.398;2022-10-16T01:14:48;6.15;;;2.50;;
67185;SDS011;54116;53.518;49.398;2022-10-16T01:21:03;7.07;;;2.42;;
67185;SDS011;54116;53.518;49.398;2022-10-16T01:23:51;7.95;;;2.33;;
67185;SDS011;54116;53.518;49.398;2022-10-16T01:30:23;6.68;;;2.40;;
67185;SDS011;54116;53.518;49.398;2022-10-16T01:36:03;8.80;;;2.70;;
67185;SDS011;54116;53.518;49.398;2022-10-16T01:38:44;10.88;;;3.13;;
67185;SDS011;54116;53.518;49.398;2022-10-16T01:41:24;5.75;;;2.28;;
67185;SDS011;54116;53.518;49.398;2022-10-16T01:44:04;6.43;;;2.47;;
67185;SDS011;54116;53.518;49.398;2022-10-16T01:46:39;5.72;;;2.17;;
67185;SDS011;54116;53.518;49.398;2022-10-16T01:49:13;6.28;;;2.47;;
67185;SDS011;54116;53.518;49.398;2022-10-16T01:54:20;7.03;;;2.10;;
67185;SDS011;54116;53.518;49.398;2022-10-16T01:56:54;5.45;;;2.10;;
67185;SDS011;54116;53.518;49.398;2022-10-16T01:59:27;10.40;;;2.38;;
67185;SDS011;54116;53.518;49.398;2022-10-16T02:02:04;6.28;;;2.47;;
67185;SDS011;54116;53.518;49.398;2022-10-16T02:04:58;8.07;;;2.90;;
67185;SDS011;54116;53.518;49.398;2022-10-16T02:07:39;5.75;;;2.28;;
67185;SDS011;54116;53.518;49.398;2022-10-16T02:10:12;6.45;;;2.85;;
67185;SDS011;54116;53.518;49.398;2022-10-16T02:12:45;5.28;;;1.67;;
67185;SDS011;54116;53.518;49.398;2022-10-16T02:15:22;6.97;;;2.63;;
67185;SDS011;54116;53.518;49.398;2022-10-16T02:17:53;6.32;;;2.22;;
67185;SDS011;54116;53.518;49.398;2022-10-16T02:20:26;5.25;;;2.42;;
67185;SDS011;54116;53.518;49.398;2022-10-16T02:22:59;5.63;;;2.03;;
67185;SDS011;54116;53.518;49.398;2022-10-16T02:25:33;5.53;;;2.60;;
67185;SDS011;54116;53.518;49.398;2022-10-16T02:28:13;6.25;;;2.33;;
67185;SDS011;54116;53.518;49.398;2022-10-16T02:31:03;5.65;;;2.25;;
67185;SDS011;54116;53.518;49.398;2022-10-16T02:33:37;5.82;;;2.28;;
67185;SDS011;54116;53.518;49.398;2022-10-16T02:36:11;6.85;;;2.40;;
67185;SDS011;54116;53.518;49.398;2022-10-16T02:38:43;7.97;;;2.58;;
67185;SDS011;54116;53.518;49.398;2022-10-16T02:41:14;6.90;;;2.63;;
67185;SDS011;54116;53.518;49.398;2022-10-16T02:43:46;8.65;;;2.22;;
67185;SDS011;54116;53.518;49.398;2022-10-16T02:46:17;7.05;;;2.45;;
67185;SDS011;54116;53.518;49.398;2022-10-16T02:48:49;8.55;;;2.45;;
67185;SDS011;54116;53.518;49.398;2022-10-16T02:51:21;7.60;;;2.47;;
67185;SDS011;54116;53.518;49.398;2022-10-16T02:53:52;9.10;;;3.05;;
67185;SDS011;54116;53.518;49.398;2022-10-16T02:56:23;7.82;;;2.33;;
67185;SDS011;54116;53.518;49.398;2022-10-16T02:58:55;6.32;;;2.45;;
67185;SDS011;54116;53.518;49.398;2022-10-16T03:01:26;7.03;;;2.83;;
67185;SDS011;54116;53.518;49.398;2022-10-16T03:03:58;9.55;;;2.85;;
67185;SDS011;54116;53.518;49.398;2022-10-16T03:06:29;6.35;;;2.33;;
67185;SDS011;54116;53.518;49.398;2022-10-16T03:09:00;7.63;;;3.10;;
67185;SDS011;54116;53.518;49.398;2022-10-16T03:11:32;5.95;;;2.10;;
67185;SDS011;54116;53.518;49.398;2022-10-16T03:14:04;8.85;;;2.53;;
67185;SDS011;54116;53.518;49.398;2022-10-16T03:16:35;7.18;;;2.30;;
67185;SDS011;54116;53.518;49.398;2022-10-16T03:19:06;5.82;;;2.22;;
67185;SDS011;54116;53.518;49.398;2022-10-16T03:21:40;5.82;;;2.60;;
67185;SDS011;54116;53.518;49.398;2022-10-16T03:24:12;7.97;;;2.35;;
67185;SDS011;54116;53.518;49.398;2022-10-16T03:26:46;6.53;;;2.30;;
67185;SDS011;54116;53.518;49.398;2022-10-16T03:29:17;6.25;;;2.35;;
67185;SDS011;54116;53.518;49.398;2022-10-16T03:31:49;8.73;;;2.58;;
67185;SDS011;54116;53.518;49.398;2022-10-16T03:34:20;7.45;;;2.40;;
67185;SDS011;54116;53.518;49.398;2022-10-16T03:36:52;7.72;;;3.17;;
67185;SDS011;54116;53.518;49.398;2022-10-16T03:39:23;8.93;;;2.50;;
67185;SDS011;54116;53.518;49.398;2022-10-16T03:41:55;5.75;;;2.65;;
67185;SDS011;54116;53.518;49.398;2022-10-16T03:44:26;5.32;;;2.38;;
67185;SDS011;54116;53.518;49.398;2022-10-16T03:46:57;6.50;;;2.63;;
67185;SDS011;54116;53.518;49.398;2022-10-16T03:49:29;8.98;;;2.50;;
67185;SDS011;54116;53.518;49.398;2022-10-16T03:52:00;6.68;;;2.60;;
67185;SDS011;54116;53.518;49.398;2022-10-16T03:54:31;6.85;;;2.40;;
67185;SDS011;54116;53.518;49.398;2022-10-16T03:57:11;11.52;;;2.42;;
67185;SDS011;54116;53.518;49.398;2022-10-16T03:59:42;7.10;;;2.45;;
67185;SDS011;54116;53.518;49.398;2022-10-16T04:02:14;6.00;;;2.53;;
67185;SDS011;54116;53.518;49.398;2022-10-16T04:04:45;7.38;;;2.28;;
67185;SDS011;54116;53.518;49.398;2022-10-16T04:07:16;9.80;;;2.47;;
67185;SDS011;54116;53.518;49.398;2022-10-16T04:09:50;5.97;;;2.25;;
67185;SDS011;54116;53.518;49.398;2022-10-16T04:12:22;6.03;;;2.78;;
67185;SDS011;54116;53.518;49.398;2022-10-16T04:14:54;7.80;;;2.75;;
67185;SDS011;54116;53.518;49.398;2022-10-16T04:17:25;10.30;;;3.30;;
67185;SDS011;54116;53.518;49.398;2022-10-16T04:19:57;6.18;;;2.42;;
67185;SDS011;54116;53.518;49.398;2022-10-16T04:22:28;6.32;;;2.20;;
67185;SDS011;54116;53.518;49.398;2022-10-16T04:24:59;8.10;;;2.17;;
67185;SDS011;54116;53.518;49.398;2022-10-16T04:27:30;9.60;;;2.95;;
67185;SDS011;54116;53.518;49.398;2022-10-16T04:30:02;9.40;;;2.80;;
67185;SDS011;54116;53.518;49.398;2022-10-16T04:32:34;11.52;;;3.00;;
67185;SDS011;54116;53.518;49.398;2022-10-16T04:35:06;11.50;;;3.35;;
67185;SDS011;54116;53.518;49.398;2022-10-16T04:37:38;9.73;;;2.83;;
67185;SDS011;54116;53.518;49.398;2022-10-16T04:40:09;6.35;;;2.50;;
67185;SDS011;54116;53.518;49.398;2022-10-16T04:42:41;7.05;;;2.20;;
67185;SDS011;54116;53.518;49.398;2022-10-16T04:45:12;7.55;;;2.92;;
67185;SDS011;54116;53.518;49.398;2022-10-16T04:47:44;5.80;;;2.75;;
67185;SDS011;54116;53.518;49.398;2022-10-16T04:50:15;10.32;;;2.80;;
67185;SDS011;54116;53.518;49.398;2022-10-16T04:52:47;8.13;;;2.85;;
67185;SDS011;54116;53.518;49.398;2022-10-16T04:55:18;9.27;;;2.97;;
67185;SDS011;54116;53.518;49.398;2022-10-16T04:57:49;7.00;;;2.85;;
67185;SDS011;54116;53.518;49.398;2022-10-16T05:00:21;8.88;;;2.97;;
67185;SDS011;54116;53.518;49.398;2022-10-16T05:02:52;6.70;;;3.03;;
67185;SDS011;54116;53.518;49.398;2022-10-16T05:05:24;7.15;;;2.83;;
67185;SDS011;54116;53.518;49.398;2022-10-16T05:07:56;7.22;;;3.25;;
67185;SDS011;54116;53.518;49.398;2022-10-16T05:10:27;7.90;;;3.45;;
67185;SDS011;54116;53.518;49.398;2022-10-16T05:12:58;8.73;;;3.15;;
67185;SDS011;54116;53.518;49.398;2022-10-16T05:15:30;8.13;;;3.60;;
67185;SDS011;54116;53.518;49.398;2022-10-16T05:18:01;13.18;;;3.75;;
67185;SDS011;54116;53.518;49.398;2022-10-16T05:20:33;8.80;;;3.95;;
67185;SDS011;54116;53.518;49.398;2022-10-16T05:23:05;9.73;;;3.80;;
67185;SDS011;54116;53.518;49.398;2022-10-16T05:25:36;10.77;;;4.07;;
67185;SDS011;54116;53.518;49.398;2022-10-16T05:28:08;6.80;;;3.33;;
67185;SDS011;54116;53.518;49.398;2022-10-16T05:30:39;9.18;;;3.83;;
67185;SDS011;54116;53.518;49.398;2022-10-16T05:33:10;8.65;;;3.75;;
67185;SDS011;54116;53.518;49.398;2022-10-16T05:35:41;8.88;;;3.50;;
67185;SDS011;54116;53.518;49.398;2022-10-16T05:38:14;8.27;;;3.67;;
67185;SDS011;54116;53.518;49.398;2022-10-16T05:40:52;8.00;;;3.55;;
67185;SDS011;54116;53.518;49.398;2022-10-16T05:43:24;8.98;;;3.50;;
67185;SDS011;54116;53.518;49.398;2022-10-16T05:46:04;7.05;;;3.35;;
67185;SDS011;54116;53.518;49.398;2022-10-16T05:48:36;11.45;;;3.80;;
67185;SDS011;54116;53.518;49.398;2022-10-16T05:51:09;8.55;;;3.40;;
67185;SDS011;54116;53.518;49.398;2022-10-16T05:53:43;5.88;;;2.90;;
67185;SDS011;54116;53.518;49.398;2022-10-16T05:56:14;6.22;;;2.67;;
67185;SDS011;54116;53.518;49.398;2022-10-16T05:58:46;6.18;;;3.05;;
67185;SDS011;54116;53.518;49.398;2022-10-16T06:01:18;8.18;;;3.22;;
67185;SDS011;54116;53.518;49.398;2022-10-16T06:03:51;8.02;;;3.47;;
67185;SDS011;54116;53.518;49.398;2022-10-16T06:06:24;8.40;;;3.42;;
67185;SDS011;54116;53.518;49.398;2022-10-16T06:08:57;6.90;;;3.38;;
67185;SDS011;54116;53.518;49.398;2022-10-16T06:11:31;7.47;;;3.42;;
67185;SDS011;54116;53.518;49.398;2022-10-16T06:14:03;8.00;;;3.75;;
67185;SDS011;54116;53.518;49.398;2022-10-16T06:16:37;9.05;;;3.60;;
67185;SDS011;54116;53.518;49.398;2022-10-16T06:19:09;6.65;;;3.38;;
67185;SDS011;54116;53.518;49.398;2022-10-16T06:21:40;9.68;;;4.05;;
67185;SDS011;54116;53.518;49.398;2022-10-16T06:24:12;9.73;;;3.85;;
67185;SDS011;54116;53.518;49.398;2022-10-16T06:26:43;8.13;;;3.47;;
67185;SDS011;54116;53.518;49.398;2022-10-16T06:29:15;8.65;;;3.80;;
67185;SDS011;54116;53.518;49.398;2022-10-16T06:31:46;8.13;;;3.95;;
67185;SDS011;54116;53.518;49.398;2022-10-16T06:34:17;7.53;;;3.53;;
67185;SDS011;54116;53.518;49.398;2022-10-16T06:36:49;6.78;;;3.17;;
67185;SDS011;54116;53.518;49.398;2022-10-16T06:39:20;7.40;;;3.08;;
67185;SDS011;54116;53.518;49.398;2022-10-16T06:41:52;7.45;;;3.97;;
67185;SDS011;54116;53.518;49.398;2022-10-16T06:44:23;8.60;;;3.70;;
67185;SDS011;54116;53.518;49.398;2022-10-16T06:46:55;10.10;;;3.47;;
67185;SDS011;54116;53.518;49.398;2022-10-16T06:49:26;7.55;;;3.22;;
67185;SDS011;54116;53.518;49.398;2022-10-16T06:54:30;7.10;;;2.92;;
67185;SDS011;54116;53.518;49.398;2022-10-16T06:57:02;8.48;;;3.08;;
67185;SDS011;54116;53.518;49.398;2022-10-16T06:59:35;8.02;;;3.33;;
67185;SDS011;54116;53.518;49.398;2022-10-16T07:02:10;7.38;;;3.30;;
67185;SDS011;54116;53.518;49.398;2022-10-16T07:04:41;7.07;;;3.53;;
67185;SDS011;54116;53.518;49.398;2022-10-16T07:07:16;6.97;;;3.35;;
67185;SDS011;54116;53.518;49.398;2022-10-16T07:09:50;7.75;;;3.33;;
67185;SDS011;54116;53.518;49.398;2022-10-16T07:12:21;5.65;;;3.05;;
67185;SDS011;54116;53.518;49.398;2022-10-16T07:14:53;6.55;;;3.00;;
67185;SDS011;54116;53.518;49.398;2022-10-16T07:17:25;6.15;;;2.88;;
67185;SDS011;54116;53.518;49.398;2022-10-16T07:19:56;6.35;;;3.03;;
67185;SDS011;54116;53.518;49.398;2022-10-16T07:22:28;6.90;;;2.22;;
67185;SDS011;54116;53.518;49.398;2022-10-16T07:24:59;5.13;;;2.15;;
67185;SDS011;54116;53.518;49.398;2022-10-16T07:27:31;4.95;;;2.00;;
67185;SDS011;54116;53.518;49.398;2022-10-16T07:30:03;5.60;;;2.22;;
67185;SDS011;54116;53.518;49.398;2022-10-16T07:32:41;5.10;;;2.50;;
67185;SDS011;54116;53.518;49.398;2022-10-16T07:35:12;5.72;;;2.80;;
67185;SDS011;54116;53.518;49.398;2022-10-16T07:37:44;5.10;;;2.10;;
67185;SDS011;54116;53.518;49.398;2022-10-16T07:40:17;6.45;;;2.25;;
67185;SDS011;54116;53.518;49.398;2022-10-16T07:42:48;5.38;;;2.10;;
67185;SDS011;54116;53.518;49.398;2022-10-16T07:45:19;9.88;;;2.78;;
67185;SDS011;54116;53.518;49.398;2022-10-16T07:47:51;8.13;;;2.70;;
67185;SDS011;54116;53.518;49.398;2022-10-16T07:50:22;5.60;;;2.53;;
67185;SDS011;54116;53.518;49.398;2022-10-16T07:52:54;5.55;;;2.40;;
67185;SDS011;54116;53.518;49.398;2022-10-16T07:55:28;7.93;;;3.20;;
67185;SDS011;54116;53.518;49.398;2022-10-16T07:57:59;5.97;;;2.33;;
67185;SDS011;54116;53.518;49.398;2022-10-16T08:00:31;6.68;;;1.80;;
67185;SDS011;54116;53.518;49.398;2022-10-16T08:03:03;6.32;;;2.33;;
67185;SDS011;54116;53.518;49.398;2022-10-16T08:05:37;10.48;;;2.40;;
67185;SDS011;54116;53.518;49.398;2022-10-16T08:08:13;7.88;;;2.50;;
67185;SDS011;54116;53.518;49.398;2022-10-16T08:10:45;6.60;;;2.38;;
67185;SDS011;54116;53.518;49.398;2022-10-16T08:13:17;6.05;;;2.40;;
67185;SDS011;54116;53.518;49.398;2022-10-16T08:15:48;7.40;;;2.67;;
67185;SDS011;54116;53.518;49.398;2022-10-16T08:18:20;6.35;;;2.63;;
67185;SDS011;54116;53.518;49.398;2022-10-16T08:20:55;5.03;;;1.73;;
67185;SDS011;54116;53.518;49.398;2022-10-16T08:23:31;5.07;;;1.80;;
67185;SDS011;54116;53.518;49.398;2022-10-16T08:28:38;6.18;;;1.90;;
67185;SDS011;54116;53.518;49.398;2022-10-16T08:31:11;5.57;;;1.88;;
67185;SDS011;54116;53.518;49.398;2022-10-16T08:33:45;4.75;;;2.05;;
67185;SDS011;54116;53.518;49.398;2022-10-16T08:36:17;4.40;;;2.17;;
67185;SDS011;54116;53.518;49.398;2022-10-16T08:38:49;7.07;;;2.60;;
67185;SDS011;54116;53.518;49.398;2022-10-16T08:41:23;5.82;;;2.10;;
67185;SDS011;54116;53.518;49.398;2022-10-16T08:49:48;5.97;;;2.20;;
67185;SDS011;54116;53.518;49.398;2022-10-16T08:52:31;9.75;;;2.22;;
67185;SDS011;54116;53.518;49.398;2022-10-16T08:55:06;5.93;;;1.80;;
67185;SDS011;54116;53.518;49.398;2022-10-16T08:57:47;6.00;;;1.77;;
67185;SDS011;54116;53.518;49.398;2022-10-16T09:00:18;5.05;;;2.00;;
67185;SDS011;54116;53.518;49.398;2022-10-16T09:02:52;7.60;;;1.70;;
67185;SDS011;54116;53.518;49.398;2022-10-16T09:05:46;5.53;;;1.73;;
67185;SDS011;54116;53.518;49.398;2022-10-16T09:17:26;7.05;;;1.80;;
67185;SDS011;54116;53.518;49.398;2022-10-16T09:20:13;4.65;;;1.60;;
67185;SDS011;54116;53.518;49.398;2022-10-16T09:23:14;4.47;;;1.65;;
67185;SDS011;54116;53.518;49.398;2022-10-16T09:25:48;5.57;;;2.00;;
67185;SDS011;54116;53.518;49.398;2022-10-16T09:28:20;7.55;;;1.95;;
67185;SDS011;54116;53.518;49.398;2022-10-16T09:30:52;5.28;;;1.80;;
67185;SDS011;54116;53.518;49.398;2022-10-16T09:33:32;6.10;;;1.63;;
67185;SDS011;54116;53.518;49.398;2022-10-16T09:36:08;3.80;;;1.75;;
67185;SDS011;54116;53.518;49.398;2022-10-16T09:38:41;4.60;;;1.73;;
67185;SDS011;54116;53.518;49.398;2022-10-16T09:41:30;5.63;;;1.95;;
67185;SDS011;54116;53.518;49.398;2022-10-16T09:44:06;9.68;;;2.65;;
67185;SDS011;54116;53.518;49.398;2022-10-16T09:47:03;3.95;;;1.65;;
67185;SDS011;54116;53.518;49.398;2022-10-16T09:52:35;4.97;;;1.73;;
67185;SDS011;54116;53.518;49.398;2022-10-16T09:55:13;5.75;;;2.50;;
67185;SDS011;54116;53.518;49.398;2022-10-16T09:57:52;4.72;;;1.92;;
67185;SDS011;54116;53.518;49.398;2022-10-16T10:00:27;6.45;;;2.03;;
67185;SDS011;54116;53.518;49.398;2022-10-16T10:03:00;5.30;;;1.70;;
67185;SDS011;54116;53.518;49.398;2022-10-16T10:05:32;8.73;;;1.60;;
67185;SDS011;54116;53.518;49.398;2022-10-16T10:08:03;4.20;;;1.92;;
67185;SDS011;54116;53.518;49.398;2022-10-16T10:10:40;5.97;;;2.00;;
67185;SDS011;54116;53.518;49.398;2022-10-16T10:13:19;4.60;;;2.58;;
67185;SDS011;54116;53.518;49.398;2022-10-16T10:15:52;5.13;;;2.10;;
67185;SDS011;54116;53.518;49.398;2022-10-16T10:18:24;4.95;;;1.70;;
67185;SDS011;54116;53.518;49.398;2022-10-16T10:20:58;5.25;;;1.88;;
67185;SDS011;54116;53.518;49.398;2022-10-16T10:23:33;4.93;;;1.85;;
67185;SDS011;54116;53.518;49.398;2022-10-16T10:26:13;4.78;;;2.13;;
67185;SDS011;54116;53.518;49.398;2022-10-16T10:28:52;4.78;;;2.08;;
67185;SDS011;54116;53.518;49.398;2022-10-16T10:36:57;6.70;;;2.20;;
67185;SDS011;54116;53.518;49.398;2022-10-16T10:39:39;6.38;;;2.17;;
67185;SDS011;54116;53.518;49.398;2022-10-16T10:42:32;4.97;;;2.35;;
67185;SDS011;54116;53.518;49.398;2022-10-16T10:45:34;8.32;;;3.92;;
67185;SDS011;54116;53.518;49.398;2022-10-16T10:50:49;5.07;;;1.73;;
67185;SDS011;54116;53.518;49.398;2022-10-16T11:08:00;4.63;;;1.35;;
67185;SDS011;54116;53.518;49.398;2022-10-16T11:11:00;2.80;;;1.10;;
67185;SDS011;54116;53.518;49.398;2022-10-16T11:13:55;6.03;;;1.73;;
67185;SDS011;54116;53.518;49.398;2022-10-16T11:16:34;6.00;;;1.67;;
67185;SDS011;54116;53.518;49.398;2022-10-16T11:19:14;7.97;;;1.80;;
67185;SDS011;54116;53.518;49.398;2022-10-16T11:22:03;5.88;;;2.30;;
67185;SDS011;54116;53.518;49.398;2022-10-16T11:24:40;3.47;;;1.65;;
67185;SDS011;54116;53.518;49.398;2022-10-16T11:27:17;3.97;;;1.50;;
67185;SDS011;54116;53.518;49.398;2022-10-16T11:29:57;4.63;;;2.33;;
67185;SDS011;54116;53.518;49.398;2022-10-16T11:32:33;6.32;;;1.83;;
67185;SDS011;54116;53.518;49.398;2022-10-16T11:35:21;6.80;;;2.45;;
67185;SDS011;54116;53.518;49.398;2022-10-16T11:37:58;7.15;;;3.20;;
67185;SDS011;54116;53.518;49.398;2022-10-16T11:40:33;5.20;;;1.80;;
67185;SDS011;54116;53.518;49.398;2022-10-16T11:43:13;6.18;;;1.80;;
67185;SDS011;54116;53.518;49.398;2022-10-16T11:45:51;6.93;;;2.40;;
67185;SDS011;54116;53.518;49.398;2022-10-16T11:48:41;5.72;;;2.00;;
67185;SDS011;54116;53.518;49.398;2022-10-16T11:51:33;6.32;;;1.92;;
67185;SDS011;54116;53.518;49.398;2022-10-16T11:56:45;4.03;;;1.50;;
67185;SDS011;54116;53.518;49.398;2022-10-16T12:02:54;13.85;;;4.03;;
67185;SDS011;54116;53.518;49.398;2022-10-16T12:08:18;5.75;;;2.03;;
67185;SDS011;54116;53.518;49.398;2022-10-16T12:10:50;4.53;;;1.70;;
67185;SDS011;54116;53.518;49.398;2022-10-16T12:13:29;4.20;;;1.98;;
67185;SDS011;54116;53.518;49.398;2022-10-16T12:18:43;4.75;;;1.52;;
67185;SDS011;54116;53.518;49.398;2022-10-16T12:21:16;4.70;;;1.60;;
67185;SDS011;54116;53.518;49.398;2022-10-16T12:23:53;4.60;;;1.48;;
67185;SDS011;54116;53.518;49.398;2022-10-16T12:26:31;5.20;;;1.73;;
67185;SDS011;54116;53.518;49.398;2022-10-16T12:29:26;5.53;;;1.67;;
67185;SDS011;54116;53.518;49.398;2022-10-16T12:35:17;5.38;;;2.67;;
67185;SDS011;54116;53.518;49.398;2022-10-16T12:37:51;4.88;;;2.00;;
67185;SDS011;54116;53.518;49.398;2022-10-16T12:40:37;4.28;;;1.75;;
67185;SDS011;54116;53.518;49.398;2022-10-16T12:43:13;5.65;;;1.63;;
67185;SDS011;54116;53.518;49.398;2022-10-16T12:49:05;7.03;;;3.05;;
67185;SDS011;54116;53.518;49.398;2022-10-16T12:51:50;5.82;;;1.60;;
67185;SDS011;54116;53.518;49.398;2022-10-16T12:54:25;8.13;;;2.60;;
67185;SDS011;54116;53.518;49.398;2022-10-16T13:08:50;6.25;;;2.30;;
67185;SDS011;54116;53.518;49.398;2022-10-16T13:11:12;7.10;;;2.50;;
67185;SDS011;54116;53.518;49.398;2022-10-16T13:16:50;8.43;;;3.05;;
67185;SDS011;54116;53.518;49.398;2022-10-16T13:30:30;11.90;;;4.03;;
67185;SDS011;54116;53.518;49.398;2022-10-16T13:35:59;9.93;;;3.90;;
67185;SDS011;54116;53.518;49.398;2022-10-16T13:38:32;12.52;;;3.72;;
67185;SDS011;54116;53.518;49.398;2022-10-16T13:41:16;9.45;;;3.10;;
67185;SDS011;54116;53.518;49.398;2022-10-16T13:43:49;19.15;;;3.95;;
67185;SDS011;54116;53.518;49.398;2022-10-16T13:46:23;9.07;;;3.33;;
67185;SDS011;54116;53.518;49.398;2022-10-16T13:49:00;14.43;;;4.22;;
67185;SDS011;54116;53.518;49.398;2022-10-16T13:51:33;14.38;;;4.07;;
67185;SDS011;54116;53.518;49.398;2022-10-16T13:54:04;17.30;;;4.28;;
67185;SDS011;54116;53.518;49.398;2022-10-16T13:56:38;9.93;;;3.47;;
67185;SDS011;54116;53.518;49.398;2022-10-16T13:59:26;14.27;;;3.15;;
67185;SDS011;54116;53.518;49.398;2022-10-16T14:02:25;13.90;;;3.30;;
67185;SDS011;54116;53.518;49.398;2022-10-16T14:05:07;9.90;;;2.88;;
67185;SDS011;54116;53.518;49.398;2022-10-16T14:07:41;11.85;;;3.42;;
67185;SDS011;54116;53.518;49.398;2022-10-16T14:10:27;10.75;;;3.00;;
67185;SDS011;54116;53.518;49.398;2022-10-16T14:13:02;9.65;;;3.47;;
67185;SDS011;54116;53.518;49.398;2022-10-16T14:15:35;8.85;;;3.05;;
67185;SDS011;54116;53.518;49.398;2022-10-16T14:18:14;13.18;;;3.50;;
67185;SDS011;54116;53.518;49.398;2022-10-16T14:20:50;15.43;;;3.47;;
67185;SDS011;54116;53.518;49.398;2022-10-16T14:23:23;13.50;;;3.45;;
67185;SDS011;54116;53.518;49.398;2022-10-16T14:28:42;14.50;;;3.78;;
67185;SDS011;54116;53.518;49.398;2022-10-16T14:31:28;14.43;;;3.83;;
67185;SDS011;54116;53.518;49.398;2022-10-16T14:34:04;21.17;;;4.30;;
67185;SDS011;54116;53.518;49.398;2022-10-16T14:36:35;16.90;;;4.40;;
67185;SDS011;54116;53.518;49.398;2022-10-16T14:39:14;14.40;;;4.00;;
67185;SDS011;54116;53.518;49.398;2022-10-16T14:41:51;11.10;;;3.83;;
67185;SDS011;54116;53.518;49.398;2022-10-16T14:44:27;12.43;;;3.63;;
67185;SDS011;54116;53.518;49.398;2022-10-16T14:47:16;14.05;;;4.15;;
67185;SDS011;54116;53.518;49.398;2022-10-16T14:49:53;14.25;;;4.10;;
67185;SDS011;54116;53.518;49.398;2022-10-16T14:52:26;15.82;;;3.95;;
67185;SDS011;54116;53.518;49.398;2022-10-16T14:54:58;12.00;;;3.97;;
67185;SDS011;54116;53.518;49.398;2022-10-16T14:57:30;23.27;;;5.60;;
67185;SDS011;54116;53.518;49.398;2022-10-16T15:00:37;12.98;;;3.92;;
67185;SDS011;54116;53.518;49.398;2022-10-16T15:03:02;17.88;;;4.18;;
67185;SDS011;54116;53.518;49.398;2022-10-16T15:05:33;9.75;;;3.63;;
67185;SDS011;54116;53.518;49.398;2022-10-16T15:08:05;10.88;;;3.72;;
67185;SDS011;54116;53.518;49.398;2022-10-16T15:10:40;10.65;;;3.92;;
67185;SDS011;54116;53.518;49.398;2022-10-16T15:13:14;12.00;;;3.85;;
67185;SDS011;54116;53.518;49.398;2022-10-16T15:15:46;9.82;;;3.70;;
67185;SDS011;54116;53.518;49.398;2022-10-16T15:18:20;12.43;;;3.58;;
67185;SDS011;54116;53.518;49.398;2022-10-16T15:20:52;14.05;;;3.78;;
67185;SDS011;54116;53.518;49.398;2022-10-16T15:23:24;12.13;;;3.63;;
67185;SDS011;54116;53.518;49.398;2022-10-16T15:25:56;11.00;;;3.33;;
67185;SDS011;54116;53.518;49.398;2022-10-16T15:28:28;12.60;;;3.80;;
67185;SDS011;54116;53.518;49.398;2022-10-16T15:30:59;10.88;;;3.50;;
67185;SDS011;54116;53.518;49.398;2022-10-16T15:33:30;13.32;;;3.75;;
67185;SDS011;54116;53.518;49.398;2022-10-16T15:36:04;11.13;;;3.92;;
67185;SDS011;54116;53.518;49.398;2022-10-16T15:38:36;10.73;;;3.63;;
67185;SDS011;54116;53.518;49.398;2022-10-16T15:41:07;13.38;;;3.40;;
67185;SDS011;54116;53.518;49.398;2022-10-16T15:43:38;10.25;;;3.47;;
67185;SDS011;54116;53.518;49.398;2022-10-16T15:46:11;11.57;;;3.72;;
67185;SDS011;54116;53.518;49.398;2022-10-16T15:48:45;14.40;;;3.80;;
67185;SDS011;54116;53.518;49.398;2022-10-16T15:51:18;9.32;;;3.25;;
67185;SDS011;54116;53.518;49.398;2022-10-16T15:53:49;12.93;;;3.50;;
67185;SDS011;54116;53.518;49.398;2022-10-16T15:56:21;11.00;;;3.28;;
67185;SDS011;54116;53.518;49.398;2022-10-16T15:58:55;11.95;;;3.88;;
67185;SDS011;54116;53.518;49.398;2022-10-16T16:01:27;8.10;;;3.13;;
67185;SDS011;54116;53.518;49.398;2022-10-16T16:04:00;12.05;;;3.35;;
67185;SDS011;54116;53.518;49.398;2022-10-16T16:06:31;10.18;;;3.60;;
67185;SDS011;54116;53.518;49.398;2022-10-16T16:09:02;10.75;;;3.50;;
67185;SDS011;54116;53.518;49.398;2022-10-16T16:11:34;9.75;;;3.08;;
67185;SDS011;54116;53.518;49.398;2022-10-16T16:14:10;9.88;;;3.50;;
67185;SDS011;54116;53.518;49.398;2022-10-16T16:16:44;9.93;;;3.25;;
67185;SDS011;54116;53.518;49.398;2022-10-16T16:19:15;9.45;;;3.42;;
67185;SDS011;54116;53.518;49.398;2022-10-16T16:21:51;11.90;;;3.88;;
67185;SDS011;54116;53.518;49.398;2022-10-16T16:24:22;12.32;;;3.47;;
67185;SDS011;54116;53.518;49.398;2022-10-16T16:26:54;8.00;;;3.20;;
67185;SDS011;54116;53.518;49.398;2022-10-16T16:29:25;7.68;;;3.10;;
67185;SDS011;54116;53.518;49.398;2022-10-16T16:31:57;8.20;;;3.38;;
67185;SDS011;54116;53.518;49.398;2022-10-16T16:34:30;12.57;;;3.40;;
67185;SDS011;54116;53.518;49.398;2022-10-16T16:37:01;10.25;;;3.50;;
67185;SDS011;54116;53.518;49.398;2022-10-16T16:39:33;7.75;;;3.05;;
67185;SDS011;54116;53.518;49.398;2022-10-16T16:42:04;8.23;;;3.10;;
67185;SDS011;54116;53.518;49.398;2022-10-16T16:44:37;13.85;;;3.22;;
67185;SDS011;54116;53.518;49.398;2022-10-16T16:47:09;8.48;;;2.97;;
67185;SDS011;54116;53.518;49.398;2022-10-16T16:49:40;10.95;;;3.72;;
67185;SDS011;54116;53.518;49.398;2022-10-16T16:52:12;13.88;;;3.50;;
67185;SDS011;54116;53.518;49.398;2022-10-16T16:54:44;10.07;;;3.30;;
67185;SDS011;54116;53.518;49.398;2022-10-16T16:57:22;8.90;;;3.35;;
67185;SDS011;54116;53.518;49.398;2022-10-16T16:59:53;12.10;;;3.63;;
67185;SDS011;54116;53.518;49.398;2022-10-16T17:02:24;11.52;;;3.20;;
67185;SDS011;54116;53.518;49.398;2022-10-16T17:04:56;11.88;;;3.33;;
67185;SDS011;54116;53.518;49.398;2022-10-16T17:07:30;14.07;;;3.33;;
67185;SDS011;54116;53.518;49.398;2022-10-16T17:10:03;10.90;;;3.90;;
67185;SDS011;54116;53.518;49.398;2022-10-16T17:12:34;12.02;;;3.35;;
67185;SDS011;54116;53.518;49.398;2022-10-16T17:15:06;10.20;;;3.25;;